Time;durP1;ratioP1;P1;durP2;ratioP2;P2;SDS_P1;SDS_P2;PMS_P1;PMS_P2;Temp;Humidity;BMP_temperature;BMP_pressure;BME280_temperature;BME280_humidity;BME280_pressure;Samples;Min_cycle;Max_cycle;Signal;HPM_P1;HPM_P2
2023/07/21 06:10:11;;;;;;;7.57;1.27;;;22.10;1.00;;;;;;5273649;23;20073;-49
2023/07/21 06:12:57;;;;;;;5.15;1.98;;;22.10;1.00;;;;;;4827469;29;20425;-58
2023/07/21 06:15:32;;;;;;;3.80;2.60;;;22.10;1.00;;;;;;4824765;29;20054;-58
2023/07/21 06:18:04;;;;;;;5.03;2.35;;;22.10;1.00;;;;;;4824587;29;20050;-57
2023/07/21 06:20:32;;;;;;;2.72;2.03;;;22.10;1.00;;;;;;4836321;29;20038;-59
2023/07/21 06:23:00;;;;;;;3.00;2.28;;;22.10;1.00;;;;;;4854413;24;20091;-59
2023/07/21 06:25:30;;;;;;;3.22;1.42;;;22.10;1.00;;;;;;4832068;29;20146;-57
2023/07/21 06:28:02;;;;;;;1.77;1.25;;;22.10;1.00;;;;;;4839692;29;20519;-57
2023/07/21 06:30:29;;;;;;;1.40;0.98;;;22.10;1.00;;;;;;4836530;29;20046;-57
2023/07/21 06:32:56;;;;;;;2.00;0.90;;;22.00;1.00;;;;;;4851100;29;20086;-56
2023/07/21 06:35:34;;;;;;;3.58;0.80;;;22.00;1.00;;;;;;4836539;29;20518;-57
2023/07/21 06:38:25;;;;;;;1.45;0.90;;;22.00;1.00;;;;;;4837528;29;20076;-57
2023/07/21 06:41:14;;;;;;;6.88;0.63;;;22.00;1.00;;;;;;4837973;29;20058;-58
2023/07/21 06:43:52;;;;;;;7.13;0.93;;;22.00;1.00;;;;;;4837288;29;20061;-60
2023/07/21 06:46:39;;;;;;;3.88;0.85;;;22.00;1.00;;;;;;4832795;29;20054;-58
2023/07/21 06:49:36;;;;;;;6.03;0.47;;;22.00;1.00;;;;;;4802794;29;20067;-55
2023/07/21 06:52:15;;;;;;;8.70;1.52;;;22.00;1.00;;;;;;4839704;29;20103;-57
2023/07/21 06:54:44;;;;;;;4.07;0.80;;;22.00;1.00;;;;;;4837084;29;20473;-60
2023/07/21 06:57:11;;;;;;;7.93;1.00;;;22.00;1.00;;;;;;4833978;29;20054;-60
2023/07/21 06:59:38;;;;;;;2.38;0.50;;;22.00;1.00;;;;;;4834707;29;20125;-60
2023/07/21 07:02:06;;;;;;;2.88;0.88;;;22.00;1.00;;;;;;4835354;29;20054;-60
2023/07/21 07:04:33;;;;;;;3.67;0.82;;;22.00;1.00;;;;;;4841053;29;20058;-56
2023/07/21 07:07:00;;;;;;;1.13;0.50;;;22.00;1.00;;;;;;4833487;29;20905;-60
2023/07/21 07:09:26;;;;;;;3.25;1.05;;;22.00;1.00;;;;;;4836578;29;20061;-59
2023/07/21 07:11:53;;;;;;;2.15;0.65;;;22.00;1.00;;;;;;4839204;29;20576;-59
2023/07/21 07:14:20;;;;;;;1.30;0.60;;;22.00;1.00;;;;;;4838562;29;20149;-58
2023/07/21 07:16:47;;;;;;;1.45;0.70;;;22.00;1.00;;;;;;4851448;29;20148;-58
2023/07/21 07:19:14;;;;;;;3.28;0.80;;;22.00;1.00;;;;;;4838311;29;20058;-59
2023/07/21 07:21:41;;;;;;;1.80;0.80;;;22.00;1.00;;;;;;4840119;29;20053;-59
2023/07/21 07:24:11;;;;;;;2.30;0.65;;;22.00;1.00;;;;;;4835516;29;20552;-58
2023/07/21 07:26:38;;;;;;;6.68;0.65;;;22.00;1.00;;;;;;4850717;29;20515;-59
2023/07/21 07:29:05;;;;;;;1.50;0.70;;;22.00;1.00;;;;;;4838113;29;20432;-60
2023/07/21 07:31:31;;;;;;;1.63;0.60;;;22.00;1.00;;;;;;4839608;29;20290;-54
2023/07/21 07:33:59;;;;;;;0.55;0.30;;;22.00;1.00;;;;;;4835929;29;20046;-57
2023/07/21 07:36:25;;;;;;;1.80;0.73;;;22.00;1.00;;;;;;4842102;29;20117;-58
2023/07/21 07:38:52;;;;;;;1.50;0.70;;;22.00;1.00;;;;;;4843462;29;20513;-59
2023/07/21 07:41:20;;;;;;;2.33;1.30;;;22.00;1.00;;;;;;4841055;29;20053;-58
2023/07/21 07:43:47;;;;;;;1.58;0.52;;;22.00;1.00;;;;;;4837228;29;20045;-58
2023/07/21 07:46:17;;;;;;;1.63;0.77;;;22.00;1.00;;;;;;4838229;29;20049;-58
2023/07/21 07:48:47;;;;;;;0.88;0.52;;;22.00;1.00;;;;;;4843652;29;20077;-59
2023/07/21 07:51:14;;;;;;;0.93;0.45;;;22.00;1.00;;;;;;4852072;29;20479;-58
2023/07/21 07:53:41;;;;;;;1.20;0.60;;;22.00;1.00;;;;;;4844171;29;20128;-59
2023/07/21 07:56:14;;;;;;;1.35;0.50;;;22.00;1.00;;;;;;4842357;29;20117;-58
2023/07/21 07:58:41;;;;;;;;;;;22.00;1.00;;;;;;4839534;29;20046;-59
2023/07/21 08:01:12;;;;;;;2.90;0.50;;;22.00;1.00;;;;;;4835673;29;19924;-58
2023/07/21 08:03:43;;;;;;;2.85;0.50;;;22.00;1.00;;;;;;4842364;29;20058;-59
2023/07/21 08:06:13;;;;;;;0.95;0.60;;;22.00;1.00;;;;;;4837393;29;20069;-56
2023/07/21 08:08:42;;;;;;;3.47;0.30;;;22.00;1.00;;;;;;4840640;29;20048;-57
2023/07/21 08:11:09;;;;;;;1.50;0.90;;;22.00;1.00;;;;;;4837207;29;20053;-59
2023/07/21 08:13:38;;;;;;;1.95;0.70;;;22.00;1.00;;;;;;4841751;29;20053;-66
2023/07/21 08:16:09;;;;;;;1.20;0.60;;;22.00;1.00;;;;;;4843967;29;20082;-66
2023/07/21 08:18:36;;;;;;;1.52;0.50;;;22.00;1.00;;;;;;4845649;29;20061;-66
2023/07/21 08:21:23;;;;;;;0.90;0.50;;;22.10;1.00;;;;;;4845165;29;20055;-66
2023/07/21 08:23:52;;;;;;;3.00;0.75;;;22.10;1.00;;;;;;4854286;29;20059;-66
2023/07/21 08:26:19;;;;;;;0.90;0.50;;;22.10;1.00;;;;;;4854066;29;20153;-66
2023/07/21 08:28:47;;;;;;;1.42;0.50;;;22.10;1.00;;;;;;4845809;29;20049;-66
2023/07/21 08:31:15;;;;;;;1.42;0.50;;;22.00;1.00;;;;;;4841875;29;20139;-66
2023/07/21 08:33:42;;;;;;;1.25;0.70;;;22.00;1.00;;;;;;4845789;29;20042;-66
2023/07/21 08:36:09;;;;;;;2.47;0.50;;;22.10;1.00;;;;;;4843006;29;20049;-59
2023/07/21 08:38:36;;;;;;;1.08;0.57;;;22.00;1.00;;;;;;4842763;29;20081;-59
2023/07/21 08:41:08;;;;;;;1.67;1.00;;;22.10;1.00;;;;;;4832844;29;20468;-57
2023/07/21 08:43:36;;;;;;;1.75;0.43;;;22.10;1.00;;;;;;4835057;29;20045;-66
2023/07/21 08:46:05;;;;;;;0.90;0.40;;;22.10;1.00;;;;;;4848658;29;20148;-59
2023/07/21 08:48:34;;;;;;;0.82;0.40;;;22.10;1.00;;;;;;4837976;29;20077;-58
2023/07/21 08:51:01;;;;;;;1.20;0.43;;;22.10;1.00;;;;;;4839484;29;20048;-59
2023/07/21 08:53:28;;;;;;;1.30;0.60;;;22.10;1.00;;;;;;4840353;29;20050;-59
2023/07/21 08:55:58;;;;;;;1.45;0.60;;;22.00;1.00;;;;;;4838973;29;20050;-57
2023/07/21 08:58:25;;;;;;;1.13;0.45;;;22.10;1.00;;;;;;4836215;29;20053;-58
2023/07/21 09:00:54;;;;;;;1.45;0.30;;;22.00;1.00;;;;;;4837350;29;20222;-57
2023/07/21 09:03:26;;;;;;;1.15;0.50;;;22.10;1.00;;;;;;4840311;29;20128;-55
2023/07/21 09:05:56;;;;;;;1.23;0.38;;;22.10;1.00;;;;;;4837390;29;20647;-59
2023/07/21 09:08:33;;;;;;;1.20;0.80;;;22.10;1.00;;;;;;4836562;29;20050;-56
2023/07/21 09:11:02;;;;;;;1.48;0.50;;;22.10;1.00;;;;;;4839186;29;20069;-59
2023/07/21 09:13:30;;;;;;;1.10;0.55;;;22.10;1.00;;;;;;4838660;29;20469;-58
2023/07/21 09:15:59;;;;;;;1.65;0.60;;;22.10;1.00;;;;;;4837947;29;20125;-57
2023/07/21 09:18:31;;;;;;;0.93;0.30;;;22.10;1.00;;;;;;4835721;29;20054;-57
2023/07/21 09:20:58;;;;;;;1.30;0.47;;;22.10;1.00;;;;;;4833746;29;20493;-56
2023/07/21 09:23:26;;;;;;;3.35;0.70;;;22.10;1.00;;;;;;4837805;29;20050;-59
2023/07/21 09:25:55;;;;;;;1.30;0.43;;;22.10;1.00;;;;;;4835635;29;20373;-59
2023/07/21 09:28:41;;;;;;;1.83;0.55;;;22.10;1.00;;;;;;4831302;29;20049;-57
2023/07/21 09:31:08;;;;;;;1.40;1.00;;;22.10;1.00;;;;;;4838400;29;20049;-58
2023/07/21 09:33:42;;;;;;;0.80;0.40;;;22.10;1.00;;;;;;4835631;29;20081;-57
2023/07/21 09:36:16;;;;;;;0.85;0.40;;;22.10;1.00;;;;;;4836749;29;20114;-59
2023/07/21 09:38:44;;;;;;;1.48;0.50;;;22.10;1.00;;;;;;4837369;29;20058;-56
2023/07/21 09:41:17;;;;;;;1.80;0.70;;;22.10;1.00;;;;;;4837901;29;20058;-54
2023/07/21 09:43:44;;;;;;;0.93;0.45;;;22.10;1.00;;;;;;4840605;29;20075;-59
2023/07/21 09:46:11;;;;;;;1.88;0.70;;;22.10;1.00;;;;;;4840700;29;20053;-59
2023/07/21 09:48:41;;;;;;;0.80;0.50;;;22.20;1.00;;;;;;4835817;29;20037;-59
2023/07/21 09:51:10;;;;;;;0.65;0.40;;;22.10;1.00;;;;;;4833542;29;20054;-57
2023/07/21 09:53:43;;;;;;;0.70;0.30;;;22.10;1.00;;;;;;4836536;29;20565;-57
2023/07/21 09:56:12;;;;;;;1.00;0.50;;;22.10;1.00;;;;;;4837323;29;20073;-58
2023/07/21 09:58:46;;;;;;;0.75;0.40;;;22.10;1.00;;;;;;4834302;29;20057;-59
2023/07/21 10:01:15;;;;;;;1.20;0.32;;;22.10;1.00;;;;;;4839993;29;20037;-57
2023/07/21 10:03:44;;;;;;;1.15;0.50;;;22.20;1.00;;;;;;4838507;29;20053;-58
2023/07/21 10:06:11;;;;;;;1.10;0.30;;;22.10;1.00;;;;;;4838586;29;20103;-58
2023/07/21 10:08:39;;;;;;;1.55;0.40;;;22.20;1.00;;;;;;4839254;29;20081;-60
2023/07/21 10:11:09;;;;;;;0.68;0.40;;;22.20;1.00;;;;;;4838242;29;20041;-56
2023/07/21 10:13:44;;;;;;;1.73;0.70;;;22.20;1.00;;;;;;4836863;29;20068;-58
2023/07/21 10:16:12;;;;;;;2.20;0.50;;;22.20;1.00;;;;;;4839590;29;20042;-57
2023/07/21 10:19:05;;;;;;;1.52;0.38;;;22.20;1.00;;;;;;4837355;29;20052;-59
2023/07/21 10:21:53;;;;;;;1.13;0.40;;;22.20;1.00;;;;;;4833186;29;20046;-58
2023/07/21 10:24:28;;;;;;;1.50;0.50;;;22.20;1.00;;;;;;4835038;29;20136;-55
2023/07/21 10:27:04;;;;;;;0.93;0.50;;;22.20;1.00;;;;;;4841707;29;20045;-59
2023/07/21 10:29:32;;;;;;;1.90;0.60;;;22.20;1.00;;;;;;4833682;29;20136;-60
2023/07/21 10:32:03;;;;;;;1.63;0.50;;;22.20;1.00;;;;;;4834420;29;20057;-59
2023/07/21 10:34:39;;;;;;;0.93;0.47;;;22.20;1.00;;;;;;4839913;29;20124;-58
2023/07/21 10:37:07;;;;;;;3.42;0.50;;;22.20;1.00;;;;;;4836839;29;20073;-59
2023/07/21 10:39:42;;;;;;;0.82;0.60;;;22.20;1.00;;;;;;4835455;29;20061;-57
2023/07/21 10:42:10;;;;;;;1.52;0.40;;;22.20;1.00;;;;;;4836023;29;20176;-58
2023/07/21 10:44:49;;;;;;;1.10;0.50;;;22.20;1.00;;;;;;4838464;29;20106;-59
2023/07/21 10:47:21;;;;;;;1.30;0.77;;;22.20;1.00;;;;;;4833772;29;20046;-57
2023/07/21 10:49:49;;;;;;;1.58;0.60;;;22.20;1.00;;;;;;4838511;29;20038;-60
2023/07/21 10:52:16;;;;;;;1.02;0.32;;;22.20;1.00;;;;;;4834794;29;20049;-59
2023/07/21 10:54:43;;;;;;;0.75;0.40;;;22.20;1.00;;;;;;4836715;29;20041;-56
2023/07/21 10:57:10;;;;;;;2.30;0.98;;;22.20;1.00;;;;;;4839026;29;20414;-59
2023/07/21 10:59:37;;;;;;;1.63;0.68;;;22.20;1.00;;;;;;4837132;29;20049;-60
2023/07/21 11:02:08;;;;;;;1.73;0.93;;;22.20;1.00;;;;;;4836947;29;20486;-59
2023/07/21 11:04:39;;;;;;;1.25;0.60;;;22.20;1.00;;;;;;4830999;29;20125;-59
2023/07/21 11:07:06;;;;;;;2.72;0.50;;;22.20;1.00;;;;;;4841433;29;20073;-59
2023/07/21 11:09:33;;;;;;;1.10;0.63;;;22.20;1.00;;;;;;4836742;29;20124;-60
2023/07/21 11:12:03;;;;;;;1.00;0.57;;;22.20;1.00;;;;;;4841870;29;20049;-55
2023/07/21 11:14:30;;;;;;;1.85;0.63;;;22.20;1.00;;;;;;4840257;29;20079;-59
2023/07/21 11:17:00;;;;;;;1.00;0.65;;;22.20;1.00;;;;;;4836331;29;20041;-59
2023/07/21 11:19:32;;;;;;;1.25;0.57;;;22.20;1.00;;;;;;4839707;29;20054;-57
2023/07/21 11:21:59;;;;;;;1.02;0.43;;;22.20;1.00;;;;;;4837721;29;20069;-58
2023/07/21 11:24:28;;;;;;;0.90;0.40;;;22.20;1.00;;;;;;4805080;29;1061631;-56
2023/07/21 11:27:02;;;;;;;1.52;0.50;;;22.20;1.00;;;;;;4846759;29;20064;-58
2023/07/21 11:29:39;;;;;;;1.05;0.50;;;22.20;1.00;;;;;;4840074;29;20113;-59
2023/07/21 11:32:15;;;;;;;;;;;22.20;1.00;;;;;;4836271;29;20053;-58
2023/07/21 11:34:42;;;;;;;1.25;0.45;;;22.20;1.00;;;;;;4840644;29;20011;-58
2023/07/21 11:37:09;;;;;;;1.75;0.90;;;22.20;1.00;;;;;;4842425;29;20151;-58
2023/07/21 11:39:36;;;;;;;0.75;0.35;;;22.20;1.00;;;;;;4857383;29;20144;-57
2023/07/21 11:42:03;;;;;;;1.38;0.43;;;22.20;1.00;;;;;;4841101;29;20046;-58
2023/07/21 11:44:32;;;;;;;1.20;0.50;;;22.20;1.00;;;;;;4844388;29;20062;-58
2023/07/21 11:47:00;;;;;;;1.35;0.75;;;22.20;1.00;;;;;;4840397;29;20050;-58
2023/07/21 11:49:31;;;;;;;1.83;0.90;;;22.20;1.00;;;;;;4839352;29;20049;-58
2023/07/21 11:52:02;;;;;;;1.17;0.40;;;22.20;1.00;;;;;;4846230;29;20136;-56
2023/07/21 11:54:36;;;;;;;1.48;0.60;;;22.20;1.00;;;;;;4839983;29;20150;-58
2023/07/21 11:57:03;;;;;;;0.80;0.40;;;22.20;1.00;;;;;;4839583;29;20053;-57
2023/07/21 11:59:30;;;;;;;1.73;0.47;;;22.20;1.00;;;;;;4837006;29;20046;-59
2023/07/21 12:01:57;;;;;;;2.28;0.70;;;22.20;1.00;;;;;;4844807;29;20045;-58
2023/07/21 12:04:24;;;;;;;2.65;0.82;;;22.20;1.00;;;;;;4837840;29;20050;-57
2023/07/21 12:06:54;;;;;;;1.38;0.70;;;22.20;1.00;;;;;;4837445;29;20053;-57
2023/07/21 12:09:21;;;;;;;1.95;0.70;;;22.20;1.00;;;;;;4838629;29;20143;-59
2023/07/21 12:11:48;;;;;;;1.25;0.80;;;22.20;1.00;;;;;;4837067;29;20397;-56
2023/07/21 12:14:15;;;;;;;3.38;1.00;;;22.30;1.00;;;;;;4838310;29;20057;-59
2023/07/21 12:16:42;;;;;;;1.13;0.70;;;22.30;1.00;;;;;;4841855;29;20561;-61
2023/07/21 12:19:09;;;;;;;1.55;0.90;;;22.30;1.00;;;;;;4841038;29;20079;-59
2023/07/21 12:21:37;;;;;;;2.85;1.00;;;22.30;1.00;;;;;;4841953;29;20161;-56
2023/07/21 12:24:13;;;;;;;2.72;1.13;;;22.30;1.00;;;;;;4842100;29;20042;-58
2023/07/21 12:26:39;;;;;;;1.25;0.90;;;22.30;1.00;;;;;;4836558;29;20121;-61
2023/07/21 12:29:06;;;;;;;1.55;0.70;;;22.30;1.00;;;;;;4839091;29;20501;-58
2023/07/21 12:31:33;;;;;;;2.53;1.20;;;22.30;1.00;;;;;;4840697;29;20046;-59
2023/07/21 12:34:01;;;;;;;2.33;1.13;;;22.30;1.00;;;;;;4838134;29;20157;-58
2023/07/21 12:36:29;;;;;;;2.75;0.90;;;22.30;1.00;;;;;;4835436;29;20039;-59
2023/07/21 12:38:56;;;;;;;2.15;1.05;;;22.30;1.00;;;;;;4843405;29;20402;-56
2023/07/21 12:41:23;;;;;;;2.38;1.10;;;22.30;1.00;;;;;;4839564;29;20056;-57
2023/07/21 12:43:50;;;;;;;2.33;1.02;;;22.30;1.00;;;;;;4839636;29;20074;-56
2023/07/21 12:46:17;;;;;;;1.52;1.10;;;22.30;1.00;;;;;;4838185;29;20503;-55
2023/07/21 12:48:44;;;;;;;2.42;1.40;;;22.30;1.00;;;;;;4840259;29;20097;-57
2023/07/21 12:51:11;;;;;;;2.88;1.50;;;22.30;1.00;;;;;;4844253;29;20056;-56
2023/07/21 12:53:37;;;;;;;2.33;1.38;;;22.30;1.00;;;;;;4840558;29;20104;-61
2023/07/21 12:56:05;;;;;;;2.03;1.55;;;22.30;1.00;;;;;;4841382;29;20501;-57
2023/07/21 12:58:32;;;;;;;3.60;1.70;;;22.30;1.00;;;;;;4841261;29;20074;-58
2023/07/21 13:00:59;;;;;;;2.95;1.88;;;22.30;1.00;;;;;;4840956;29;20049;-57
2023/07/21 13:03:26;;;;;;;2.42;1.60;;;22.30;1.00;;;;;;4840093;29;20114;-58
2023/07/21 13:05:53;;;;;;;3.13;1.98;;;22.30;1.00;;;;;;4838657;29;20529;-56
2023/07/21 13:08:23;;;;;;;2.83;1.52;;;22.30;1.00;;;;;;4838468;29;20129;-58
2023/07/21 13:10:52;;;;;;;2.40;1.60;;;22.30;1.00;;;;;;4841324;29;20042;-54
2023/07/21 13:13:19;;;;;;;2.90;1.65;;;22.30;1.00;;;;;;4834088;29;20049;-56
2023/07/21 13:15:45;;;;;;;4.82;2.05;;;22.30;1.00;;;;;;4838549;29;20061;-56
2023/07/21 13:18:12;;;;;;;3.22;2.20;;;22.30;1.00;;;;;;4836801;29;20105;-58
2023/07/21 13:20:39;;;;;;;2.95;2.20;;;22.30;1.00;;;;;;4840098;29;20518;-58
2023/07/21 13:23:06;;;;;;;2.05;1.67;;;22.30;1.00;;;;;;4835626;29;20141;-57
2023/07/21 13:25:46;;;;;;;3.13;1.77;;;22.30;1.00;;;;;;4838476;29;20451;-57
2023/07/21 13:28:13;;;;;;;4.43;2.72;;;22.30;1.00;;;;;;4838898;29;20129;-54
2023/07/21 13:30:40;;;;;;;3.50;2.28;;;22.40;1.00;;;;;;4838267;29;20054;-58
2023/07/21 13:33:07;;;;;;;3.45;2.83;;;22.30;1.00;;;;;;4837700;29;20041;-58
2023/07/21 13:35:35;;;;;;;4.80;2.70;;;22.30;1.00;;;;;;4833562;29;20050;-57
2023/07/21 13:38:02;;;;;;;3.65;2.53;;;22.40;1.00;;;;;;4833951;29;20077;-58
2023/07/21 13:40:29;;;;;;;4.72;2.95;;;22.30;1.00;;;;;;4835173;29;20065;-57
2023/07/21 13:42:56;;;;;;;5.82;2.58;;;22.40;1.00;;;;;;4838874;29;20110;-57
2023/07/21 13:45:23;;;;;;;4.30;2.88;;;22.40;1.00;;;;;;4837536;29;20050;-55
2023/07/21 13:47:50;;;;;;;4.72;2.75;;;22.40;1.00;;;;;;4836347;29;20053;-57
2023/07/21 13:50:17;;;;;;;3.95;2.97;;;22.40;1.00;;;;;;4838329;29;20050;-58
2023/07/21 13:52:44;;;;;;;4.68;3.17;;;22.40;1.00;;;;;;4836424;29;20050;-58
2023/07/21 13:55:11;;;;;;;4.97;3.58;;;22.40;1.00;;;;;;4831394;29;20050;-57
2023/07/21 13:57:38;;;;;;;5.35;2.88;;;22.40;1.00;;;;;;4834386;29;20042;-59
2023/07/21 14:00:07;;;;;;;4.03;2.97;;;22.40;1.00;;;;;;4836232;29;20050;-59
2023/07/21 14:02:37;;;;;;;5.93;3.03;;;22.40;1.00;;;;;;4841085;29;20066;-59
2023/07/21 14:05:05;;;;;;;4.45;3.38;;;22.40;1.00;;;;;;4833817;29;20042;-59
2023/07/21 14:07:32;;;;;;;6.35;3.00;;;22.40;1.00;;;;;;4831186;29;20070;-56
2023/07/21 14:09:58;;;;;;;6.20;3.22;;;22.40;1.00;;;;;;4841113;29;20037;-58
2023/07/21 14:12:25;;;;;;;6.05;3.67;;;22.40;1.00;;;;;;4829679;29;20112;-58
2023/07/21 14:14:53;;;;;;;4.72;3.55;;;22.40;1.00;;;;;;4832685;29;20058;-56
2023/07/21 14:17:20;;;;;;;4.75;3.78;;;22.40;1.00;;;;;;4835648;29;20506;-58
2023/07/21 14:19:48;;;;;;;5.22;3.47;;;22.40;1.00;;;;;;4831410;29;20046;-59
2023/07/21 14:22:14;;;;;;;4.60;3.67;;;22.40;1.00;;;;;;4833684;29;20049;-58
2023/07/21 14:24:41;;;;;;;5.07;3.47;;;22.40;1.00;;;;;;4833397;29;20577;-57
2023/07/21 14:27:08;;;;;;;4.13;2.83;;;22.40;1.00;;;;;;4830661;29;20052;-57
2023/07/21 14:29:35;;;;;;;4.95;3.17;;;22.40;1.00;;;;;;4833718;29;20937;-59
2023/07/21 14:32:02;;;;;;;5.07;3.78;;;22.40;1.00;;;;;;4837453;29;20069;-59
2023/07/21 14:34:28;;;;;;;4.60;3.53;;;22.40;1.00;;;;;;4839226;29;20132;-58
2023/07/21 14:36:55;;;;;;;5.10;3.58;;;22.40;1.00;;;;;;4821217;29;20065;-58
2023/07/21 14:39:22;;;;;;;4.53;3.53;;;22.40;1.00;;;;;;4835141;29;20041;-58
2023/07/21 14:41:49;;;;;;;5.88;4.10;;;22.50;1.00;;;;;;4830255;29;20488;-60
2023/07/21 14:44:16;;;;;;;4.20;3.28;;;22.50;1.00;;;;;;4830865;29;20050;-58
2023/07/21 14:46:43;;;;;;;4.35;3.53;;;22.40;1.00;;;;;;4836198;29;20062;-59
2023/07/21 14:49:10;;;;;;;4.93;3.75;;;22.50;1.00;;;;;;4833301;29;20472;-57
2023/07/21 14:51:38;;;;;;;4.35;3.13;;;22.50;1.00;;;;;;4837444;29;20046;-57
2023/07/21 14:54:06;;;;;;;6.47;3.75;;;22.50;1.00;;;;;;4830633;29;20073;-56
2023/07/21 14:56:33;;;;;;;5.15;3.75;;;22.50;1.00;;;;;;4837811;29;20501;-59
2023/07/21 14:59:00;;;;;;;4.72;3.60;;;22.50;1.00;;;;;;4831765;29;20050;-59
2023/07/21 15:01:27;;;;;;;4.13;3.08;;;22.50;1.00;;;;;;4834156;29;20084;-59
2023/07/21 15:03:54;;;;;;;5.28;3.53;;;22.50;1.00;;;;;;4834028;29;20417;-60
2023/07/21 15:06:21;;;;;;;4.43;3.42;;;22.50;1.00;;;;;;4833928;29;20062;-59
2023/07/21 15:08:49;;;;;;;7.38;3.22;;;22.50;1.00;;;;;;4841511;29;20125;-58
2023/07/21 15:11:16;;;;;;;5.95;3.67;;;22.50;1.00;;;;;;4832924;29;20041;-58
2023/07/21 15:13:43;;;;;;;5.03;3.63;;;22.50;1.00;;;;;;4830214;29;20097;-58
2023/07/21 15:16:09;;;;;;;3.97;3.40;;;22.50;1.00;;;;;;4834301;29;20061;-59
2023/07/21 15:18:36;;;;;;;4.43;2.92;;;22.60;1.00;;;;;;4839926;29;20049;-59
2023/07/21 15:21:03;;;;;;;4.70;3.75;;;22.50;1.00;;;;;;4836059;29;20053;-59
2023/07/21 15:23:30;;;;;;;4.72;3.47;;;22.50;1.00;;;;;;4833181;29;20209;-59
2023/07/21 15:25:57;;;;;;;4.20;3.47;;;22.60;1.00;;;;;;4832323;29;20053;-60
2023/07/21 15:28:24;;;;;;;4.78;3.50;;;22.60;1.00;;;;;;4834682;29;20051;-59
2023/07/21 15:30:51;;;;;;;5.45;3.00;;;22.60;1.00;;;;;;4848727;29;20120;-60
2023/07/21 15:33:18;;;;;;;5.30;3.45;;;22.60;1.00;;;;;;4833012;29;20045;-59
2023/07/21 15:35:45;;;;;;;5.43;3.20;;;22.60;1.00;;;;;;4832491;29;20505;-58
2023/07/21 15:38:13;;;;;;;5.03;3.15;;;22.60;1.00;;;;;;4831728;29;20049;-55
2023/07/21 15:40:40;;;;;;;5.93;3.88;;;22.60;1.00;;;;;;4835231;29;20050;-58
2023/07/21 15:43:07;;;;;;;4.85;3.25;;;22.60;1.00;;;;;;4849798;29;20045;-55
2023/07/21 15:45:34;;;;;;;5.00;3.58;;;22.60;1.00;;;;;;4835740;29;20082;-55
2023/07/21 15:48:00;;;;;;;3.78;2.85;;;22.60;1.00;;;;;;4832877;29;20065;-57
2023/07/21 15:50:27;;;;;;;4.38;3.08;;;22.60;1.00;;;;;;4827359;29;20490;-58
2023/07/21 15:52:54;;;;;;;5.00;3.20;;;22.60;1.00;;;;;;4834518;29;20478;-60
2023/07/21 15:55:21;;;;;;;6.35;3.28;;;22.60;1.00;;;;;;4833621;29;20575;-58
2023/07/21 15:57:49;;;;;;;5.55;3.13;;;22.60;1.00;;;;;;4835599;29;20046;-59
2023/07/21 16:00:18;;;;;;;4.75;2.78;;;22.60;1.00;;;;;;4836839;29;20426;-58
2023/07/21 16:02:48;;;;;;;3.38;2.55;;;22.60;1.00;;;;;;4836552;29;20046;-59
2023/07/21 16:05:16;;;;;;;4.65;3.05;;;22.70;1.00;;;;;;4835202;29;20542;-60
2023/07/21 16:07:43;;;;;;;4.15;2.67;;;22.70;1.00;;;;;;4836831;29;20102;-59
2023/07/21 16:10:11;;;;;;;4.30;2.80;;;22.70;1.00;;;;;;4835786;29;20038;-58
2023/07/21 16:12:39;;;;;;;6.43;2.40;;;22.70;1.00;;;;;;4834335;29;20049;-57
2023/07/21 16:15:07;;;;;;;3.22;2.50;;;22.70;1.00;;;;;;4837097;29;20136;-58
2023/07/21 16:17:34;;;;;;;5.47;2.58;;;22.70;1.00;;;;;;4836877;29;20050;-59
2023/07/21 16:20:05;;;;;;;3.78;2.63;;;22.70;1.00;;;;;;4838090;29;20509;-58
2023/07/21 16:22:36;;;;;;;4.45;2.58;;;22.70;1.00;;;;;;4830586;29;20044;-58
2023/07/21 16:25:03;;;;;;;3.85;2.50;;;22.70;1.00;;;;;;4835275;29;21211;-59
2023/07/21 16:27:31;;;;;;;3.58;2.38;;;22.70;1.00;;;;;;4837468;29;20133;-57
2023/07/21 16:29:58;;;;;;;3.65;2.53;;;22.70;1.00;;;;;;4853996;29;20057;-57
2023/07/21 16:32:25;;;;;;;3.85;2.25;;;22.70;1.00;;;;;;4836602;29;20046;-59
2023/07/21 16:34:53;;;;;;;3.72;2.88;;;22.70;1.00;;;;;;4839054;29;20439;-57
2023/07/21 16:37:19;;;;;;;3.28;2.30;;;22.70;1.00;;;;;;4839394;29;20421;-55
2023/07/21 16:39:49;;;;;;;4.82;2.42;;;22.70;1.00;;;;;;4841032;29;20041;-57
2023/07/21 16:42:17;;;;;;;4.20;2.40;;;22.70;1.00;;;;;;4836965;29;20054;-57
2023/07/21 16:44:43;;;;;;;4.10;2.42;;;22.70;1.00;;;;;;4838944;29;20046;-57
2023/07/21 16:47:10;;;;;;;4.70;2.78;;;22.70;1.00;;;;;;4842406;29;20073;-58
2023/07/21 16:49:37;;;;;;;2.65;1.90;;;22.70;1.00;;;;;;4836664;29;20418;-58
2023/07/21 16:52:04;;;;;;;4.95;2.60;;;22.70;1.00;;;;;;4839879;29;20038;-57
2023/07/21 16:54:31;;;;;;;5.43;2.42;;;22.70;1.00;;;;;;4839057;29;20046;-57
2023/07/21 16:56:58;;;;;;;4.35;2.30;;;22.70;1.00;;;;;;4837513;29;20050;-57
2023/07/21 16:59:25;;;;;;;4.97;2.50;;;22.70;1.00;;;;;;4830942;29;20054;-58
2023/07/21 17:01:52;;;;;;;5.60;2.97;;;22.70;1.00;;;;;;4837397;29;20052;-56
2023/07/21 17:04:19;;;;;;;4.07;2.55;;;22.70;1.00;;;;;;4833174;29;20095;-58
2023/07/21 17:06:46;;;;;;;2.95;1.80;;;22.70;1.00;;;;;;4835444;29;20056;-56
2023/07/21 17:09:15;;;;;;;3.80;2.00;;;22.80;1.00;;;;;;4831579;29;20050;-58
2023/07/21 17:11:42;;;;;;;2.83;1.95;;;22.70;1.00;;;;;;4839900;29;20498;-59
2023/07/21 17:14:08;;;;;;;3.10;1.98;;;22.70;1.00;;;;;;4833313;29;20053;-55
2023/07/21 17:16:35;;;;;;;4.13;2.03;;;22.70;1.00;;;;;;4838459;29;20133;-59
2023/07/21 17:19:02;;;;;;;3.03;2.20;;;22.80;1.00;;;;;;4836164;29;20136;-58
2023/07/21 17:21:29;;;;;;;3.38;2.00;;;22.70;1.00;;;;;;4837309;29;20137;-58
2023/07/21 17:23:56;;;;;;;3.15;2.08;;;22.80;1.00;;;;;;4835145;29;20057;-57
2023/07/21 17:26:23;;;;;;;3.53;1.77;;;22.80;1.00;;;;;;4829506;29;20058;-57
2023/07/21 17:28:50;;;;;;;3.25;2.25;;;22.80;1.00;;;;;;4837663;29;20060;-59
2023/07/21 17:31:17;;;;;;;4.72;2.53;;;22.80;1.00;;;;;;4836922;29;20520;-58
2023/07/21 17:33:43;;;;;;;4.55;2.25;;;22.80;1.00;;;;;;4837244;29;20045;-58
2023/07/21 17:36:10;;;;;;;4.07;2.28;;;22.80;1.00;;;;;;4834348;29;20066;-57
2023/07/21 17:38:37;;;;;;;3.28;2.03;;;22.80;1.00;;;;;;4832663;29;20043;-54
2023/07/21 17:41:04;;;;;;;2.53;1.70;;;22.80;1.00;;;;;;4831747;29;20099;-55
2023/07/21 17:43:33;;;;;;;3.47;2.03;;;22.80;1.00;;;;;;4835763;29;20106;-57
2023/07/21 17:46:02;;;;;;;5.38;2.42;;;22.80;1.00;;;;;;4831095;29;20054;-59
2023/07/21 17:48:29;;;;;;;5.10;2.47;;;22.80;1.00;;;;;;4833026;29;20062;-57
2023/07/21 17:50:56;;;;;;;2.85;1.60;;;22.80;1.00;;;;;;4830582;29;20470;-57
2023/07/21 17:53:22;;;;;;;4.05;2.08;;;22.80;1.00;;;;;;4836218;29;20102;-57
2023/07/21 17:55:50;;;;;;;3.35;1.73;;;22.80;1.00;;;;;;4833361;29;20639;-55
2023/07/21 17:58:18;;;;;;;4.22;2.33;;;22.80;1.00;;;;;;4836797;29;20075;-56
2023/07/21 18:00:45;;;;;;;4.13;2.38;;;22.80;1.00;;;;;;4836958;29;20132;-58
2023/07/21 18:03:12;;;;;;;4.32;2.60;;;22.80;1.00;;;;;;4829884;29;20054;-55
2023/07/21 18:05:39;;;;;;;4.22;1.85;;;22.80;1.00;;;;;;4838149;29;20053;-66
2023/07/21 18:08:09;;;;;;;4.28;1.98;;;22.80;1.00;;;;;;4820762;29;20098;-58
2023/07/21 18:10:36;;;;;;;5.22;1.92;;;22.80;1.00;;;;;;4833028;29;20145;-55
2023/07/21 18:13:03;;;;;;;4.07;2.83;;;22.80;1.00;;;;;;4838377;29;20123;-58
2023/07/21 18:15:35;;;;;;;5.72;2.60;;;22.80;1.00;;;;;;4835722;29;20054;-57
2023/07/21 18:18:02;;;;;;;4.13;2.42;;;22.90;1.00;;;;;;4837233;29;20049;-58
2023/07/21 18:20:33;;;;;;;5.07;2.70;;;22.90;1.00;;;;;;4836564;29;20434;-58
2023/07/21 18:23:02;;;;;;;3.67;2.10;;;22.90;1.00;;;;;;4831519;29;20546;-64
2023/07/21 18:25:29;;;;;;;7.50;2.35;;;22.90;1.00;;;;;;4827958;29;20058;-64
2023/07/21 18:27:56;;;;;;;4.85;2.28;;;22.90;1.00;;;;;;4838258;29;20133;-64
2023/07/21 18:30:23;;;;;;;5.18;2.70;;;22.90;1.00;;;;;;4847422;29;20056;-64
2023/07/21 18:32:51;;;;;;;3.72;1.73;;;22.90;1.00;;;;;;4833288;29;20133;-64
2023/07/21 18:35:20;;;;;;;4.95;2.15;;;22.90;1.00;;;;;;4830184;29;20551;-64
2023/07/21 18:37:47;;;;;;;3.47;1.90;;;22.90;1.00;;;;;;4833258;29;20049;-65
2023/07/21 18:40:15;;;;;;;8.73;2.90;;;22.90;1.00;;;;;;4835686;29;20523;-63
2023/07/21 18:42:48;;;;;;;5.35;2.72;;;22.90;1.00;;;;;;4838062;29;20081;-63
2023/07/21 18:45:17;;;;;;;3.80;2.55;;;22.90;1.00;;;;;;4833837;29;20112;-63
2023/07/21 18:47:44;;;;;;;4.68;2.83;;;22.90;1.00;;;;;;4836633;29;20059;-63
2023/07/21 18:50:11;;;;;;;4.15;2.10;;;22.90;1.00;;;;;;4835143;29;20195;-63
2023/07/21 18:52:38;;;;;;;5.70;2.13;;;22.90;1.00;;;;;;4831392;29;20045;-63
2023/07/21 18:55:06;;;;;;;5.47;2.78;;;22.90;1.00;;;;;;4838625;29;20045;-63
2023/07/21 18:57:32;;;;;;;4.20;1.98;;;22.90;1.00;;;;;;4834156;29;20511;-63
2023/07/21 18:59:59;;;;;;;3.67;2.10;;;22.90;1.00;;;;;;4830349;29;20048;-64
2023/07/21 19:02:26;;;;;;;4.03;2.58;;;22.90;1.00;;;;;;4830666;29;20539;-63
2023/07/21 19:04:53;;;;;;;4.03;2.40;;;22.90;1.00;;;;;;4833836;29;20559;-63
2023/07/21 19:07:20;;;;;;;6.63;2.67;;;22.90;1.00;;;;;;4838725;29;20042;-63
2023/07/21 19:09:47;;;;;;;5.35;3.05;;;22.90;1.00;;;;;;4831525;29;20050;-63
2023/07/21 19:12:14;;;;;;;4.07;3.15;;;22.90;1.00;;;;;;4833278;29;20069;-63
2023/07/21 19:14:43;;;;;;;3.55;2.20;;;22.90;1.00;;;;;;4835480;29;20042;-63